Roy Kristian — CFK5461 — position and weather

sailwx.info

Track history (hours):
 
Tides and Currents Weather Stations Pressure Air Temp Water Temp Dewpoint Dewpoint Depression Visibility Wind Speed Wind Dir Waves Ship Positions

Roy Kristian

Last reported at 2018-Jun-20 23:01 UTC. Time now 2018-Jun-20 23:09 UTC.
Position N 50°47' W 127°04'.

; draft 5 m.

Type: Fishing. MMSI: 316008770.

Date/timePositionNaut miles runAvg speedWind from/ knotsBaromVisibWave heightAir tempDewpointWater temp
2018-Jun-20 23:01N 50°47' W 127°04'9 0.5
2018-Jun-20 06:40N 50°41' W 126°53'310.5
2018-Jun-20 06:24N 50°42' W 126°57'6 9.9
2018-Jun-20 05:49N 50°45' W 127°05'310.0
2018-Jun-20 05:29N 50°47' W 127°10'510.0
2018-Jun-20 05:00N 50°50' W 127°16'5 9.9
2018-Jun-20 04:30N 50°53' W 127°22'510.1
2018-Jun-20 04:01N 50°56' W 127°28'510.3
2018-Jun-20 03:30N 50°60' W 127°34'510.3
2018-Jun-20 03:00N 51°03' W 127°40'510.2
2018-Jun-20 02:30N 51°07' W 127°46'610.6
2018-Jun-20 01:58N 51°11' W 127°52'510.7
2018-Jun-20 01:30N 51°16' W 127°53'610.7
2018-Jun-20 00:58N 51°22' W 127°53'5 9.9
2018-Jun-20 00:27N 51°27' W 127°51'510.1
2018-Jun-20 00:00N 51°31' W 127°51'5 9.8
2018-Jun-19 23:30N 51°36' W 127°53'5 9.5
2018-Jun-19 23:00N 51°41' W 127°54'510.3
2018-Jun-19 22:31N 51°46' W 127°55'510.2
2018-Jun-19 22:01N 51°51' W 127°56'510.1
2018-Jun-19 21:30N 51°56' W 127°56'5 9.6
2018-Jun-19 21:00N 52°01' W 127°55'510.0
2018-Jun-19 20:29N 52°06' W 127°54'510.4
2018-Jun-19 20:00N 52°11' W 127°51'510.4
2018-Jun-19 19:30N 52°15' W 127°47'7 1.1
2018-Jun-19 13:24N 52°21' W 127°42'0 0.0
2018-Jun-19 12:58N 52°21' W 127°42'3 6.9
2018-Jun-19 12:30N 52°19' W 127°45'510.2
2018-Jun-19 12:00N 52°14' W 127°48'510.2
2018-Jun-19 11:30N 52°09' W 127°52'510.2
2018-Jun-19 11:00N 52°04' W 127°54'510.9
2018-Jun-19 10:30N 51°59' W 127°56'510.6
2018-Jun-19 10:01N 51°54' W 127°56'510.4
2018-Jun-19 09:30N 51°49' W 127°55'510.5
2018-Jun-19 09:01N 51°43' W 127°55'510.4
2018-Jun-19 08:30N 51°38' W 127°53'510.3
2018-Jun-19 08:00N 51°33' W 127°51'510.1
2018-Jun-19 07:30N 51°28' W 127°50'510.3
2018-Jun-19 07:00N 51°23' W 127°51'510.2
2018-Jun-19 06:30N 51°18' W 127°52'5 9.7
2018-Jun-19 05:57N 51°13' W 127°51'510.3
2018-Jun-19 05:31N 51°09' W 127°48'510.3
2018-Jun-19 05:00N 51°05' W 127°43'510.5
2018-Jun-19 04:30N 51°01' W 127°38'510.5
2018-Jun-19 04:00N 50°56' W 127°34'510.7
2018-Jun-19 03:30N 50°51' W 127°30'510.8
2018-Jun-19 03:00N 50°46' W 127°28'2 4.1
2018-Jun-19 02:25N 50°43' W 127°28'0 0.8
2018-Jun-19 02:00N 50°44' W 127°28'5 7.0
2018-Jun-19 01:19N 50°43' W 127°21'5 9.7
2018-Jun-19 00:50N 50°40' W 127°15'11 8.7
2018-Jun-18 23:36N 50°36' W 126°60'1 9.1
2018-Jun-18 23:31N 50°36' W 126°58'7 9.2
2018-Jun-18 22:47N 50°33' W 126°49'510.6
2018-Jun-18 22:17N 50°32' W 126°40'510.3
2018-Jun-18 21:47N 50°31' W 126°33'510.6
2018-Jun-18 21:17N 50°30' W 126°24'310.7
2018-Jun-18 20:59N 50°30' W 126°19'12 0.6
2018-Jun-18 02:18N 50°26' W 126°02'611.0
2018-Jun-18 01:47N 50°28' W 126°10'411.0
2018-Jun-18 01:26N 50°29' W 126°16'610.7
2018-Jun-18 00:52N 50°29' W 126°26'410.7
2018-Jun-18 00:27N 50°30' W 126°33'610.5
2018-Jun-17 23:55N 50°31' W 126°41'410.7
2018-Jun-17 23:30N 50°33' W 126°47'611.2
2018-Jun-17 22:59N 50°35' W 126°56'711.5
2018-Jun-17 22:25N 50°37' W 127°06'511.3
2018-Jun-17 22:00N 50°39' W 127°13'510.7
2018-Jun-17 21:30N 50°43' W 127°19'510.5
2018-Jun-17 21:00N 50°46' W 127°25'4 7.1
2018-Jun-17 20:30N 50°43' W 127°29'0 0.0
2018-Jun-17 20:00N 50°43' W 127°29'0 0.0
2018-Jun-17 19:29N 50°43' W 127°29'0 0.0
2018-Jun-17 19:00N 50°43' W 127°29'0 0.0
2018-Jun-17 18:26N 50°43' W 127°29'0 0.0
2018-Jun-17 18:00N 50°43' W 127°29'1 2.1
2018-Jun-17 17:30N 50°43' W 127°28'0 0.1
2018-Jun-17 17:00N 50°43' W 127°28'0 0.0
2018-Jun-17 16:30N 50°43' W 127°28'0 0.0
2018-Jun-17 16:00N 50°43' W 127°28'0 0.0
2018-Jun-17 15:30N 50°43' W 127°28'2 4.3
2018-Jun-17 15:00N 50°45' W 127°28'5 9.7
2018-Jun-17 14:30N 50°50' W 127°30'4 8.4
2018-Jun-17 14:00N 50°54' W 127°33'5 9.5
2018-Jun-17 13:30N 50°58' W 127°36'5 9.7
2018-Jun-17 12:59N 51°03' W 127°40'5 9.9
2018-Jun-17 12:30N 51°06' W 127°45'510.0
2018-Jun-17 12:00N 51°10' W 127°50'510.0
2018-Jun-17 11:30N 51°15' W 127°52'5 9.9
2018-Jun-17 11:00N 51°20' W 127°52'510.2
2018-Jun-17 10:29N 51°25' W 127°50'510.7
2018-Jun-17 10:00N 51°30' W 127°50'510.6
2018-Jun-17 09:30N 51°35' W 127°52'510.2
2018-Jun-17 09:00N 51°40' W 127°54'510.5
2018-Jun-17 08:30N 51°46' W 127°55'510.6
2018-Jun-17 08:00N 51°51' W 127°55'510.5
2018-Jun-17 07:30N 51°56' W 127°56'510.4
2018-Jun-17 07:00N 52°01' W 127°55'511.0
2018-Jun-17 06:30N 52°07' W 127°53'610.9
2018-Jun-17 06:00N 52°12' W 127°50'510.9
2018-Jun-17 05:30N 52°17' W 127°46'5 9.6
2018-Jun-17 05:01N 52°21' W 127°43'1 0.1
2018-Jun-16 15:14N 52°21' W 127°42'1 3.4
2018-Jun-16 14:56N 52°21' W 127°43'410.3
2018-Jun-16 14:30N 52°17' W 127°46'5 9.3
2018-Jun-16 14:00N 52°13' W 127°49'4 9.0
2018-Jun-16 13:30N 52°09' W 127°52'4 8.9
2018-Jun-16 13:00N 52°04' W 127°54'5 9.2
2018-Jun-16 12:30N 51°60' W 127°55'4 8.9
2018-Jun-16 12:00N 51°55' W 127°56'5 9.3
2018-Jun-16 11:30N 51°51' W 127°55'5 9.7
2018-Jun-16 11:00N 51°46' W 127°55'5 9.6
2018-Jun-16 10:30N 51°41' W 127°54'5 9.6
2018-Jun-16 10:00N 51°37' W 127°53'5 9.2
2018-Jun-16 09:30N 51°32' W 127°51'5 9.0
2018-Jun-16 09:00N 51°27' W 127°51'5 8.9
2018-Jun-16 08:30N 51°23' W 127°52'4 8.9
2018-Jun-16 08:00N 51°20' W 127°57'4 7.5
2018-Jun-16 07:30N 51°17' W 127°55'5 8.7
2018-Jun-16 06:57N 51°12' W 127°52'4 8.8
2018-Jun-16 06:30N 51°09' W 127°49'4 8.5
2018-Jun-16 06:00N 51°06' W 127°44'4 8.8
2018-Jun-16 05:30N 51°03' W 127°39'5 9.5
2018-Jun-16 05:00N 50°59' W 127°34'5 9.9
2018-Jun-16 04:30N 50°56' W 127°27'510.8
2018-Jun-16 04:00N 50°53' W 127°20'510.1
2018-Jun-16 03:30N 50°51' W 127°13'5 9.9
2018-Jun-16 02:59N 50°48' W 127°07'5 9.9
2018-Jun-16 02:28N 50°45' W 127°00'24 1.8
2018-Jun-15 13:17N 50°29' W 126°31'5 9.2
2018-Jun-15 12:45N 50°31' W 126°39'3 9.4
2018-Jun-15 12:28N 50°32' W 126°43'5 9.3
2018-Jun-15 11:58N 50°34' W 126°48'7 9.3
2018-Jun-15 11:10N 50°41' W 126°54'210.6
2018-Jun-15 10:59N 50°42' W 126°57'610.3
2018-Jun-15 10:22N 50°45' W 127°06'410.5
2018-Jun-15 10:00N 50°47' W 127°11'510.4
2018-Jun-15 09:30N 50°50' W 127°17'510.7
2018-Jun-15 09:00N 50°54' W 127°23'510.8
2018-Jun-15 08:30N 50°58' W 127°30'510.5
2018-Jun-15 08:00N 51°01' W 127°36'510.3
2018-Jun-15 07:30N 51°04' W 127°43'510.5
2018-Jun-15 07:00N 51°08' W 127°48'510.4
2018-Jun-15 06:30N 51°12' W 127°53'5 9.9
2018-Jun-15 06:00N 51°17' W 127°54'610.2
2018-Jun-15 05:26N 51°23' W 127°53'410.1
2018-Jun-15 05:00N 51°27' W 127°51'510.4
2018-Jun-15 04:30N 51°32' W 127°51'510.6
2018-Jun-15 04:00N 51°38' W 127°53'510.5
2018-Jun-15 03:30N 51°43' W 127°54'510.6
2018-Jun-15 03:00N 51°48' W 127°55'510.4
2018-Jun-15 02:30N 51°53' W 127°56'510.5
2018-Jun-15 02:00N 51°58' W 127°56'510.8
2018-Jun-15 01:30N 52°04' W 127°55'510.5
2018-Jun-15 01:00N 52°09' W 127°52'510.3
2018-Jun-15 00:30N 52°13' W 127°49'510.3
2018-Jun-15 00:00N 52°18' W 127°45'4 0.7
2018-Jun-14 18:53N 52°21' W 127°42'0 0.0
2018-Jun-14 18:30N 52°21' W 127°42'0 0.0
2018-Jun-14 18:00N 52°21' W 127°42'0 0.0
2018-Jun-14 13:59N 52°21' W 127°42'2 3.5
2018-Jun-14 13:30N 52°20' W 127°44'510.4
2018-Jun-14 13:00N 52°16' W 127°47'5 9.9
2018-Jun-14 12:30N 52°11' W 127°50'510.0
2018-Jun-14 12:00N 52°06' W 127°53'5 9.8
2018-Jun-14 11:30N 52°02' W 127°55'5 9.9
2018-Jun-14 11:00N 51°57' W 127°56'510.3
2018-Jun-14 10:30N 51°52' W 127°55'510.4
2018-Jun-14 10:00N 51°46' W 127°55'510.4
2018-Jun-14 09:30N 51°41' W 127°55'510.7
2018-Jun-14 09:00N 51°36' W 127°53'510.6
2018-Jun-14 08:30N 51°31' W 127°52'510.2
2018-Jun-14 08:00N 51°26' W 127°51'510.2
2018-Jun-14 07:30N 51°21' W 127°52'510.3
2018-Jun-14 06:59N 51°15' W 127°52'510.0
2018-Jun-14 06:30N 51°10' W 127°50'5 9.7
2018-Jun-14 06:00N 51°07' W 127°45'510.1
2018-Jun-14 05:30N 51°03' W 127°40'510.1
2018-Jun-14 05:00N 50°60' W 127°34'510.4
2018-Jun-14 04:30N 50°56' W 127°28'610.3
2018-Jun-14 03:58N 50°53' W 127°21'5 9.9
2018-Jun-14 03:29N 50°51' W 127°14'510.3
2018-Jun-14 03:00N 50°48' W 127°07'510.6
2018-Jun-14 02:30N 50°45' W 127°00'19 1.6
2018-Jun-13 14:14N 50°32' W 126°39'2 8.0
2018-Jun-13 13:57N 50°33' W 126°41'3 6.6
2018-Jun-13 13:26N 50°36' W 126°45'9 9.0
2018-Jun-13 12:29N 50°41' W 126°55'5 9.6
2018-Jun-13 11:56N 50°44' W 127°02'4 9.4
2018-Jun-13 11:30N 50°46' W 127°08'5 9.6
2018-Jun-13 11:00N 50°49' W 127°13'5 9.4
2018-Jun-13 10:30N 50°52' W 127°19'4 8.9
2018-Jun-13 10:00N 50°55' W 127°25'4 8.8
2018-Jun-13 09:30N 50°58' W 127°30'5 9.5
2018-Jun-13 09:00N 51°01' W 127°36'5 9.5
2018-Jun-13 08:30N 51°04' W 127°41'5 9.8
2018-Jun-13 08:00N 51°08' W 127°46'5 9.3
2018-Jun-13 07:27N 51°12' W 127°51'4 9.8
2018-Jun-13 07:00N 51°16' W 127°52'5 9.6
2018-Jun-13 06:30N 51°21' W 127°51'5 9.8
2018-Jun-13 06:00N 51°26' W 127°49'5 9.8
2018-Jun-13 05:30N 51°31' W 127°50'5 9.6
2018-Jun-13 05:00N 51°35' W 127°52'5 9.3
2018-Jun-13 04:30N 51°40' W 127°53'5 9.9
2018-Jun-13 04:00N 51°45' W 127°54'510.3
2018-Jun-13 03:30N 51°50' W 127°54'510.4
2018-Jun-13 03:00N 51°55' W 127°55'510.8
2018-Jun-13 02:30N 52°01' W 127°56'611.2
2018-Jun-13 02:00N 52°06' W 127°54'611.6
2018-Jun-13 01:30N 52°12' W 127°51'611.3
2018-Jun-13 01:00N 52°17' W 127°46'5 0.5
2018-Jun-12 14:14N 52°21' W 127°42'0 0.0
2018-Jun-12 13:43N 52°21' W 127°42'1 3.0
2018-Jun-12 13:28N 52°21' W 127°43'4 9.6
2018-Jun-12 13:00N 52°17' W 127°46'5 9.4
2018-Jun-12 12:30N 52°13' W 127°49'5 9.3
2018-Jun-12 12:00N 52°09' W 127°52'4 8.8
2018-Jun-12 11:30N 52°04' W 127°54'5 9.6
2018-Jun-12 11:00N 51°60' W 127°55'5 9.5
2018-Jun-12 10:30N 51°55' W 127°56'510.0
2018-Jun-12 10:00N 51°50' W 127°56'510.3
2018-Jun-12 09:30N 51°45' W 127°55'510.1
2018-Jun-12 09:00N 51°40' W 127°54'510.2
2018-Jun-12 08:30N 51°35' W 127°52'510.2
2018-Jun-12 08:00N 51°30' W 127°51'510.0
2018-Jun-12 07:30N 51°25' W 127°51'5 9.9
2018-Jun-12 07:00N 51°20' W 127°52'5 9.9
2018-Jun-12 06:30N 51°15' W 127°52'510.1
2018-Jun-12 06:00N 51°10' W 127°49'5 9.9
2018-Jun-12 05:30N 51°06' W 127°45'5 9.9
2018-Jun-12 05:00N 51°03' W 127°39'5 9.7
2018-Jun-12 04:30N 50°59' W 127°33'5 9.9
2018-Jun-12 04:00N 50°56' W 127°27'5 9.6
2018-Jun-12 03:30N 50°53' W 127°21'5 9.6
2018-Jun-12 02:59N 50°51' W 127°14'5 9.9
2018-Jun-12 02:30N 50°48' W 127°08'510.1
2018-Jun-12 02:00N 50°45' W 127°01'  
Track history (hours):
 
Tides and Currents Weather Stations Pressure Air Temp Water Temp Dewpoint Dewpoint Depression Visibility Wind Speed Wind Dir Waves Ship Positions

Roy Kristian

Last reported at 2018-Jun-20 23:01 UTC. Time now 2018-Jun-20 23:09 UTC.
Position N 50°47' W 127°04'.

; draft 5 m.

Type: Fishing. MMSI: 316008770.

Date/timePositionNaut miles runAvg speedWind from/ knotsBaromVisibWave heightAir tempDewpointWater temp
2018-Jun-20 23:01N 50°47' W 127°04'9 0.5
2018-Jun-20 06:40N 50°41' W 126°53'310.5
2018-Jun-20 06:24N 50°42' W 126°57'6 9.9
2018-Jun-20 05:49N 50°45' W 127°05'310.0
2018-Jun-20 05:29N 50°47' W 127°10'510.0
2018-Jun-20 05:00N 50°50' W 127°16'5 9.9
2018-Jun-20 04:30N 50°53' W 127°22'510.1
2018-Jun-20 04:01N 50°56' W 127°28'510.3
2018-Jun-20 03:30N 50°60' W 127°34'510.3
2018-Jun-20 03:00N 51°03' W 127°40'510.2
2018-Jun-20 02:30N 51°07' W 127°46'610.6
2018-Jun-20 01:58N 51°11' W 127°52'510.7
2018-Jun-20 01:30N 51°16' W 127°53'610.7
2018-Jun-20 00:58N 51°22' W 127°53'5 9.9
2018-Jun-20 00:27N 51°27' W 127°51'510.1
2018-Jun-20 00:00N 51°31' W 127°51'5 9.8
2018-Jun-19 23:30N 51°36' W 127°53'5 9.5
2018-Jun-19 23:00N 51°41' W 127°54'510.3
2018-Jun-19 22:31N 51°46' W 127°55'510.2
2018-Jun-19 22:01N 51°51' W 127°56'510.1
2018-Jun-19 21:30N 51°56' W 127°56'5 9.6
2018-Jun-19 21:00N 52°01' W 127°55'510.0
2018-Jun-19 20:29N 52°06' W 127°54'510.4
2018-Jun-19 20:00N 52°11' W 127°51'510.4
2018-Jun-19 19:30N 52°15' W 127°47'7 1.1
2018-Jun-19 13:24N 52°21' W 127°42'0 0.0
2018-Jun-19 12:58N 52°21' W 127°42'3 6.9
2018-Jun-19 12:30N 52°19' W 127°45'510.2
2018-Jun-19 12:00N 52°14' W 127°48'510.2
2018-Jun-19 11:30N 52°09' W 127°52'510.2
2018-Jun-19 11:00N 52°04' W 127°54'510.9
2018-Jun-19 10:30N 51°59' W 127°56'510.6
2018-Jun-19 10:01N 51°54' W 127°56'510.4
2018-Jun-19 09:30N 51°49' W 127°55'510.5
2018-Jun-19 09:01N 51°43' W 127°55'510.4
2018-Jun-19 08:30N 51°38' W 127°53'510.3
2018-Jun-19 08:00N 51°33' W 127°51'510.1
2018-Jun-19 07:30N 51°28' W 127°50'510.3
2018-Jun-19 07:00N 51°23' W 127°51'510.2
2018-Jun-19 06:30N 51°18' W 127°52'5 9.7
2018-Jun-19 05:57N 51°13' W 127°51'510.3
2018-Jun-19 05:31N 51°09' W 127°48'510.3
2018-Jun-19 05:00N 51°05' W 127°43'510.5
2018-Jun-19 04:30N 51°01' W 127°38'510.5
2018-Jun-19 04:00N 50°56' W 127°34'510.7
2018-Jun-19 03:30N 50°51' W 127°30'510.8
2018-Jun-19 03:00N 50°46' W 127°28'2 4.1
2018-Jun-19 02:25N 50°43' W 127°28'0 0.8
2018-Jun-19 02:00N 50°44' W 127°28'5 7.0
2018-Jun-19 01:19N 50°43' W 127°21'5 9.7
2018-Jun-19 00:50N 50°40' W 127°15'11 8.7
2018-Jun-18 23:36N 50°36' W 126°60'1 9.1
2018-Jun-18 23:31N 50°36' W 126°58'7 9.2
2018-Jun-18 22:47N 50°33' W 126°49'510.6
2018-Jun-18 22:17N 50°32' W 126°40'510.3
2018-Jun-18 21:47N 50°31' W 126°33'510.6
2018-Jun-18 21:17N 50°30' W 126°24'310.7
2018-Jun-18 20:59N 50°30' W 126°19'12 0.6
2018-Jun-18 02:18N 50°26' W 126°02'611.0
2018-Jun-18 01:47N 50°28' W 126°10'411.0
2018-Jun-18 01:26N 50°29' W 126°16'610.7
2018-Jun-18 00:52N 50°29' W 126°26'410.7
2018-Jun-18 00:27N 50°30' W 126°33'610.5
2018-Jun-17 23:55N 50°31' W 126°41'410.7
2018-Jun-17 23:30N 50°33' W 126°47'611.2
2018-Jun-17 22:59N 50°35' W 126°56'711.5
2018-Jun-17 22:25N 50°37' W 127°06'511.3
2018-Jun-17 22:00N 50°39' W 127°13'510.7
2018-Jun-17 21:30N 50°43' W 127°19'510.5
2018-Jun-17 21:00N 50°46' W 127°25'4 7.1
2018-Jun-17 20:30N 50°43' W 127°29'0 0.0
2018-Jun-17 20:00N 50°43' W 127°29'0 0.0
2018-Jun-17 19:29N 50°43' W 127°29'0 0.0
2018-Jun-17 19:00N 50°43' W 127°29'0 0.0
2018-Jun-17 18:26N 50°43' W 127°29'0 0.0
2018-Jun-17 18:00N 50°43' W 127°29'1 2.1
2018-Jun-17 17:30N 50°43' W 127°28'0 0.1
2018-Jun-17 17:00N 50°43' W 127°28'0 0.0
2018-Jun-17 16:30N 50°43' W 127°28'0 0.0
2018-Jun-17 16:00N 50°43' W 127°28'0 0.0
2018-Jun-17 15:30N 50°43' W 127°28'2 4.3
2018-Jun-17 15:00N 50°45' W 127°28'5 9.7
2018-Jun-17 14:30N 50°50' W 127°30'4 8.4
2018-Jun-17 14:00N 50°54' W 127°33'5 9.5
2018-Jun-17 13:30N 50°58' W 127°36'5 9.7
2018-Jun-17 12:59N 51°03' W 127°40'5 9.9
2018-Jun-17 12:30N 51°06' W 127°45'510.0
2018-Jun-17 12:00N 51°10' W 127°50'510.0
2018-Jun-17 11:30N 51°15' W 127°52'5 9.9
2018-Jun-17 11:00N 51°20' W 127°52'510.2
2018-Jun-17 10:29N 51°25' W 127°50'510.7
2018-Jun-17 10:00N 51°30' W 127°50'510.6
2018-Jun-17 09:30N 51°35' W 127°52'510.2
2018-Jun-17 09:00N 51°40' W 127°54'510.5
2018-Jun-17 08:30N 51°46' W 127°55'510.6
2018-Jun-17 08:00N 51°51' W 127°55'510.5
2018-Jun-17 07:30N 51°56' W 127°56'510.4
2018-Jun-17 07:00N 52°01' W 127°55'511.0
2018-Jun-17 06:30N 52°07' W 127°53'610.9
2018-Jun-17 06:00N 52°12' W 127°50'510.9
2018-Jun-17 05:30N 52°17' W 127°46'5 9.6
2018-Jun-17 05:01N 52°21' W 127°43'1 0.1
2018-Jun-16 15:14N 52°21' W 127°42'1 3.4
2018-Jun-16 14:56N 52°21' W 127°43'410.3
2018-Jun-16 14:30N 52°17' W 127°46'5 9.3
2018-Jun-16 14:00N 52°13' W 127°49'4 9.0
2018-Jun-16 13:30N 52°09' W 127°52'4 8.9
2018-Jun-16 13:00N 52°04' W 127°54'5 9.2
2018-Jun-16 12:30N 51°60' W 127°55'4 8.9
2018-Jun-16 12:00N 51°55' W 127°56'5 9.3
2018-Jun-16 11:30N 51°51' W 127°55'5 9.7
2018-Jun-16 11:00N 51°46' W 127°55'5 9.6
2018-Jun-16 10:30N 51°41' W 127°54'5 9.6
2018-Jun-16 10:00N 51°37' W 127°53'5 9.2
2018-Jun-16 09:30N 51°32' W 127°51'5 9.0
2018-Jun-16 09:00N 51°27' W 127°51'5 8.9
2018-Jun-16 08:30N 51°23' W 127°52'4 8.9
2018-Jun-16 08:00N 51°20' W 127°57'4 7.5
2018-Jun-16 07:30N 51°17' W 127°55'5 8.7
2018-Jun-16 06:57N 51°12' W 127°52'4 8.8
2018-Jun-16 06:30N 51°09' W 127°49'4 8.5
2018-Jun-16 06:00N 51°06' W 127°44'4 8.8
2018-Jun-16 05:30N 51°03' W 127°39'5 9.5
2018-Jun-16 05:00N 50°59' W 127°34'5 9.9
2018-Jun-16 04:30N 50°56' W 127°27'510.8
2018-Jun-16 04:00N 50°53' W 127°20'510.1
2018-Jun-16 03:30N 50°51' W 127°13'5 9.9
2018-Jun-16 02:59N 50°48' W 127°07'5 9.9
2018-Jun-16 02:28N 50°45' W 127°00'24 1.8
2018-Jun-15 13:17N 50°29' W 126°31'5 9.2
2018-Jun-15 12:45N 50°31' W 126°39'3 9.4
2018-Jun-15 12:28N 50°32' W 126°43'5 9.3
2018-Jun-15 11:58N 50°34' W 126°48'7 9.3
2018-Jun-15 11:10N 50°41' W 126°54'210.6
2018-Jun-15 10:59N 50°42' W 126°57'610.3
2018-Jun-15 10:22N 50°45' W 127°06'410.5
2018-Jun-15 10:00N 50°47' W 127°11'510.4
2018-Jun-15 09:30N 50°50' W 127°17'510.7
2018-Jun-15 09:00N 50°54' W 127°23'510.8
2018-Jun-15 08:30N 50°58' W 127°30'510.5
2018-Jun-15 08:00N 51°01' W 127°36'510.3
2018-Jun-15 07:30N 51°04' W 127°43'510.5
2018-Jun-15 07:00N 51°08' W 127°48'510.4
2018-Jun-15 06:30N 51°12' W 127°53'5 9.9
2018-Jun-15 06:00N 51°17' W 127°54'610.2
2018-Jun-15 05:26N 51°23' W 127°53'410.1
2018-Jun-15 05:00N 51°27' W 127°51'510.4
2018-Jun-15 04:30N 51°32' W 127°51'510.6
2018-Jun-15 04:00N 51°38' W 127°53'510.5
2018-Jun-15 03:30N 51°43' W 127°54'510.6
2018-Jun-15 03:00N 51°48' W 127°55'510.4
2018-Jun-15 02:30N 51°53' W 127°56'510.5
2018-Jun-15 02:00N 51°58' W 127°56'510.8
2018-Jun-15 01:30N 52°04' W 127°55'510.5
2018-Jun-15 01:00N 52°09' W 127°52'510.3
2018-Jun-15 00:30N 52°13' W 127°49'510.3
2018-Jun-15 00:00N 52°18' W 127°45'4 0.7
2018-Jun-14 18:53N 52°21' W 127°42'0 0.0
2018-Jun-14 18:30N 52°21' W 127°42'0 0.0
2018-Jun-14 18:00N 52°21' W 127°42'0 0.0
2018-Jun-14 13:59N 52°21' W 127°42'2 3.5
2018-Jun-14 13:30N 52°20' W 127°44'510.4
2018-Jun-14 13:00N 52°16' W 127°47'5 9.9
2018-Jun-14 12:30N 52°11' W 127°50'510.0
2018-Jun-14 12:00N 52°06' W 127°53'5 9.8
2018-Jun-14 11:30N 52°02' W 127°55'5 9.9
2018-Jun-14 11:00N 51°57' W 127°56'510.3
2018-Jun-14 10:30N 51°52' W 127°55'510.4
2018-Jun-14 10:00N 51°46' W 127°55'510.4
2018-Jun-14 09:30N 51°41' W 127°55'510.7
2018-Jun-14 09:00N 51°36' W 127°53'510.6
2018-Jun-14 08:30N 51°31' W 127°52'510.2
2018-Jun-14 08:00N 51°26' W 127°51'510.2
2018-Jun-14 07:30N 51°21' W 127°52'510.3
2018-Jun-14 06:59N 51°15' W 127°52'510.0
2018-Jun-14 06:30N 51°10' W 127°50'5 9.7
2018-Jun-14 06:00N 51°07' W 127°45'510.1
2018-Jun-14 05:30N 51°03' W 127°40'510.1
2018-Jun-14 05:00N 50°60' W 127°34'510.4
2018-Jun-14 04:30N 50°56' W 127°28'610.3
2018-Jun-14 03:58N 50°53' W 127°21'5 9.9
2018-Jun-14 03:29N 50°51' W 127°14'510.3
2018-Jun-14 03:00N 50°48' W 127°07'510.6
2018-Jun-14 02:30N 50°45' W 127°00'19 1.6
2018-Jun-13 14:14N 50°32' W 126°39'2 8.0
2018-Jun-13 13:57N 50°33' W 126°41'3 6.6
2018-Jun-13 13:26N 50°36' W 126°45'9 9.0
2018-Jun-13 12:29N 50°41' W 126°55'5 9.6
2018-Jun-13 11:56N 50°44' W 127°02'4 9.4
2018-Jun-13 11:30N 50°46' W 127°08'5 9.6
2018-Jun-13 11:00N 50°49' W 127°13'5 9.4
2018-Jun-13 10:30N 50°52' W 127°19'4 8.9
2018-Jun-13 10:00N 50°55' W 127°25'4 8.8
2018-Jun-13 09:30N 50°58' W 127°30'5 9.5
2018-Jun-13 09:00N 51°01' W 127°36'5 9.5
2018-Jun-13 08:30N 51°04' W 127°41'5 9.8
2018-Jun-13 08:00N 51°08' W 127°46'5 9.3
2018-Jun-13 07:27N 51°12' W 127°51'4 9.8
2018-Jun-13 07:00N 51°16' W 127°52'5 9.6
2018-Jun-13 06:30N 51°21' W 127°51'5 9.8
2018-Jun-13 06:00N 51°26' W 127°49'5 9.8
2018-Jun-13 05:30N 51°31' W 127°50'5 9.6
2018-Jun-13 05:00N 51°35' W 127°52'5 9.3
2018-Jun-13 04:30N 51°40' W 127°53'5 9.9
2018-Jun-13 04:00N 51°45' W 127°54'510.3
2018-Jun-13 03:30N 51°50' W 127°54'510.4
2018-Jun-13 03:00N 51°55' W 127°55'510.8
2018-Jun-13 02:30N 52°01' W 127°56'611.2
2018-Jun-13 02:00N 52°06' W 127°54'611.6
2018-Jun-13 01:30N 52°12' W 127°51'611.3
2018-Jun-13 01:00N 52°17' W 127°46'5 0.5
2018-Jun-12 14:14N 52°21' W 127°42'0 0.0
2018-Jun-12 13:43N 52°21' W 127°42'1 3.0
2018-Jun-12 13:28N 52°21' W 127°43'4 9.6
2018-Jun-12 13:00N 52°17' W 127°46'5 9.4
2018-Jun-12 12:30N 52°13' W 127°49'5 9.3
2018-Jun-12 12:00N 52°09' W 127°52'4 8.8
2018-Jun-12 11:30N 52°04' W 127°54'5 9.6
2018-Jun-12 11:00N 51°60' W 127°55'5 9.5
2018-Jun-12 10:30N 51°55' W 127°56'510.0
2018-Jun-12 10:00N 51°50' W 127°56'510.3
2018-Jun-12 09:30N 51°45' W 127°55'510.1
2018-Jun-12 09:00N 51°40' W 127°54'510.2
2018-Jun-12 08:30N 51°35' W 127°52'510.2
2018-Jun-12 08:00N 51°30' W 127°51'510.0
2018-Jun-12 07:30N 51°25' W 127°51'5 9.9
2018-Jun-12 07:00N 51°20' W 127°52'5 9.9
2018-Jun-12 06:30N 51°15' W 127°52'510.1
2018-Jun-12 06:00N 51°10' W 127°49'5 9.9
2018-Jun-12 05:30N 51°06' W 127°45'5 9.9
2018-Jun-12 05:00N 51°03' W 127°39'5 9.7
2018-Jun-12 04:30N 50°59' W 127°33'5 9.9
2018-Jun-12 04:00N 50°56' W 127°27'5 9.6
2018-Jun-12 03:30N 50°53' W 127°21'5 9.6
2018-Jun-12 02:59N 50°51' W 127°14'5 9.9
2018-Jun-12 02:30N 50°48' W 127°08'510.1
2018-Jun-12 02:00N 50°45' W 127°01'  

Dump ship's entire track history